createdAt,value
2022-08-22T00:01:56.664Z,19.03
2022-08-22T00:07:08.518Z,18.82
2022-08-22T00:12:19.955Z,18.65
2022-08-22T00:17:38.757Z,18.54
2022-08-22T00:23:17.656Z,18.44
2022-08-22T00:28:26.801Z,18.47
2022-08-22T00:34:10.211Z,18.44
2022-08-22T00:39:40.738Z,18.31
2022-08-22T00:45:33.253Z,18.24
2022-08-22T00:51:09.398Z,18.22
2022-08-22T00:57:03.490Z,18.13
2022-08-22T01:02:15.197Z,17.93
2022-08-22T01:07:47.945Z,17.87
2022-08-22T01:13:43.262Z,17.82
2022-08-22T01:19:30.683Z,17.82
2022-08-22T01:25:22.584Z,17.87
2022-08-22T01:31:09.596Z,17.91
2022-08-22T01:36:36.059Z,18.00
2022-08-22T01:42:15.215Z,18.16
2022-08-22T01:47:39.873Z,18.21
2022-08-22T01:52:47.197Z,18.23
2022-08-22T01:58:02.205Z,18.22
2022-08-22T02:03:22.886Z,18.23
2022-08-22T02:08:42.338Z,18.27
2022-08-22T02:13:59.893Z,18.30
2022-08-22T02:19:21.495Z,18.29
2022-08-22T02:24:33.435Z,18.18
2022-08-22T02:30:10.345Z,18.08
2022-08-22T02:35:14.367Z,18.09
2022-08-22T02:40:27.524Z,18.08
2022-08-22T02:46:13.991Z,18.04
2022-08-22T02:51:27.292Z,18.13
2022-08-22T02:56:40.427Z,18.16
2022-08-22T03:01:45.830Z,18.14
2022-08-22T03:07:14.635Z,18.19
2022-08-22T03:12:29.679Z,18.27
2022-08-22T03:17:59.787Z,18.31
2022-08-22T03:23:28.053Z,18.41
2022-08-22T03:28:59.258Z,18.41
2022-08-22T03:34:24.824Z,18.44
2022-08-22T03:39:51.160Z,18.39
2022-08-22T03:45:24.107Z,18.30
2022-08-22T03:51:15.787Z,18.24
2022-08-22T03:56:40.123Z,18.31
2022-08-22T04:02:04.209Z,18.31
2022-08-22T04:07:55.665Z,18.42
2022-08-22T04:13:32.881Z,18.49
2022-08-22T04:18:58.258Z,18.50
2022-08-22T04:24:53.558Z,18.55
2022-08-22T04:30:21.467Z,18.46
2022-08-22T04:35:34.230Z,18.39
2022-08-22T04:40:46.839Z,18.35
2022-08-22T04:46:05.225Z,18.41
2022-08-22T04:51:20.008Z,18.51
2022-08-22T04:56:41.185Z,18.58
2022-08-22T05:01:56.729Z,18.66
2022-08-22T05:07:20.454Z,18.72
2022-08-22T05:12:32.018Z,18.79
2022-08-22T05:17:36.466Z,18.91
2022-08-22T05:22:46.800Z,19.09
2022-08-22T05:27:53.291Z,19.22
2022-08-22T05:33:39.866Z,19.31
2022-08-22T05:39:23.707Z,19.46
2022-08-22T05:44:37.789Z,19.56
2022-08-22T05:50:02.190Z,19.67
2022-08-22T05:55:28.392Z,19.80
2022-08-22T06:00:33.011Z,19.96
2022-08-22T06:05:38.657Z,20.16
2022-08-22T06:10:48.183Z,20.33
2022-08-22T06:15:55.398Z,20.50
2022-08-22T06:21:03.826Z,20.67
2022-08-22T06:26:06.698Z,20.83
2022-08-22T06:31:41.983Z,20.92
2022-08-22T06:36:48.718Z,21.02
2022-08-22T06:42:21.530Z,21.09
2022-08-22T06:47:33.121Z,21.30
2022-08-22T06:52:49.498Z,21.61
2022-08-22T06:58:43.696Z,21.95
2022-08-22T07:03:59.600Z,22.35
2022-08-22T07:09:06.276Z,22.71
2022-08-22T07:14:14.649Z,22.92
2022-08-22T07:19:33.581Z,23.01
2022-08-22T07:24:36.603Z,23.01
2022-08-22T07:29:44.329Z,23.04
2022-08-22T07:35:11.367Z,23.08
2022-08-22T07:40:34.007Z,23.13
2022-08-22T07:45:52.870Z,23.11
2022-08-22T07:51:00.658Z,23.16
2022-08-22T07:56:04.737Z,23.28
2022-08-22T08:01:15.393Z,23.39
2022-08-22T08:06:18.190Z,23.48
2022-08-22T08:11:22.628Z,23.60
2022-08-22T08:16:28.583Z,23.76
2022-08-22T08:21:37.714Z,23.92
2022-08-22T08:27:04.579Z,23.96
2022-08-22T08:32:09.633Z,24.11
2022-08-22T08:37:20.565Z,24.41
2022-08-22T08:43:01.309Z,24.68
2022-08-22T08:48:44.604Z,24.96
2022-08-22T08:54:22.136Z,25.07
2022-08-22T08:59:44.233Z,25.41
2022-08-22T09:05:25.396Z,25.81
2022-08-22T09:11:09.723Z,25.99
2022-08-22T09:16:53.889Z,26.19
2022-08-22T09:22:27.926Z,26.25
2022-08-22T09:27:47.644Z,26.40
2022-08-22T09:33:02.737Z,26.55
2022-08-22T09:38:34.755Z,26.74
2022-08-22T09:44:08.610Z,26.85
2022-08-22T09:49:27.059Z,26.97
2022-08-22T09:54:49.464Z,27.09
2022-08-22T10:00:15.398Z,27.20
2022-08-22T10:05:40.893Z,27.30
2022-08-22T10:11:19.032Z,27.50
2022-08-22T10:16:41.385Z,27.78
2022-08-22T10:22:16.751Z,27.96
2022-08-22T10:27:51.881Z,27.90
2022-08-22T10:33:19.447Z,27.65
2022-08-22T10:38:55.998Z,27.37
2022-08-22T10:44:15.559Z,27.30
2022-08-22T10:49:33.827Z,27.21
2022-08-22T10:54:52.245Z,27.11
2022-08-22T11:00:31.207Z,27.13
2022-08-22T11:05:41.288Z,27.63
2022-08-22T11:11:23.654Z,27.97
2022-08-22T11:17:28.015Z,28.28
2022-08-22T11:22:34.106Z,28.63
2022-08-22T11:28:21.879Z,28.88
2022-08-22T11:33:46.322Z,29.00
2022-08-22T11:39:21.045Z,29.06
2022-08-22T11:44:56.122Z,29.15
2022-08-22T11:50:35.895Z,29.24
2022-08-22T11:56:05.563Z,29.22
2022-08-22T12:01:18.383Z,29.07
2022-08-22T12:06:49.667Z,28.96
2022-08-22T12:12:31.324Z,28.82
2022-08-22T12:18:26.718Z,28.75
2022-08-22T12:24:20.986Z,28.49
2022-08-22T12:30:12.977Z,28.33
2022-08-22T12:35:35.245Z,28.17
2022-08-22T12:40:57.347Z,27.97
2022-08-22T12:46:13.193Z,27.82
2022-08-22T12:51:46.834Z,27.75
2022-08-22T12:57:02.512Z,27.69
2022-08-22T13:02:25.624Z,27.62
2022-08-22T13:07:38.472Z,27.58
2022-08-22T13:12:47.283Z,27.61
2022-08-22T13:18:29.839Z,27.76
2022-08-22T13:23:51.016Z,27.92
2022-08-22T13:34:45.141Z,28.30
2022-08-22T13:39:49.404Z,28.47
2022-08-22T13:44:54.298Z,28.65
2022-08-22T13:50:06.441Z,28.90
2022-08-22T13:55:19.662Z,29.13
2022-08-22T14:01:06.613Z,29.27
2022-08-22T14:06:37.373Z,29.46
2022-08-22T14:11:51.583Z,29.35
2022-08-22T14:16:55.280Z,29.15
2022-08-22T14:22:01.905Z,28.87
2022-08-22T14:27:14.973Z,28.43
2022-08-22T14:32:23.833Z,28.31
2022-08-22T14:37:35.015Z,28.18
2022-08-22T14:42:56.292Z,28.01
2022-08-22T14:48:29.949Z,27.79
2022-08-22T14:53:37.295Z,27.63
2022-08-22T14:58:52.250Z,27.44
2022-08-22T15:04:02.977Z,27.34
2022-08-22T15:09:14.193Z,27.24
2022-08-22T15:14:26.387Z,27.18
2022-08-22T15:19:41.219Z,27.02
2022-08-22T15:25:02.751Z,26.87
2022-08-22T15:30:20.431Z,26.75
2022-08-22T15:35:30.018Z,26.63
2022-08-22T15:40:43.693Z,26.41
2022-08-22T15:45:51.990Z,26.37
2022-08-22T15:50:56.205Z,26.32
2022-08-22T15:56:11.189Z,26.18
2022-08-22T16:01:19.636Z,26.02
2022-08-22T16:06:56.751Z,25.92
2022-08-22T16:12:03.470Z,25.82
2022-08-22T16:17:30.509Z,25.76
2022-08-22T16:22:59.646Z,25.64
2022-08-22T16:28:02.496Z,25.53
2022-08-22T16:33:06.953Z,25.42
2022-08-22T16:38:36.578Z,25.38
2022-08-22T16:43:39.630Z,25.29
2022-08-22T16:49:01.054Z,25.22
2022-08-22T16:54:12.859Z,25.14
2022-08-22T16:59:24.122Z,25.08
2022-08-22T17:04:54.090Z,25.01
2022-08-22T17:10:17.583Z,24.91
2022-08-22T17:16:04.481Z,24.78
2022-08-22T17:21:29.535Z,24.65
2022-08-22T17:26:55.188Z,24.54
2022-08-22T17:32:33.526Z,24.39
2022-08-22T17:37:59.557Z,24.19
2022-08-22T17:43:11.294Z,24.04
2022-08-22T17:48:39.382Z,23.90
2022-08-22T17:53:54.969Z,23.75
2022-08-22T17:59:00.956Z,23.62
2022-08-22T18:04:06.690Z,23.49
2022-08-22T18:09:37.873Z,23.37
2022-08-22T18:14:51.713Z,23.25
2022-08-22T18:20:15.415Z,23.14
2022-08-22T18:25:18.136Z,23.08
2022-08-22T18:30:30.128Z,23.00
2022-08-22T18:35:50.017Z,22.85
2022-08-22T18:41:07.035Z,22.80
2022-08-22T18:46:44.632Z,22.83
2022-08-22T18:52:05.742Z,22.81
2022-08-22T18:57:46.543Z,22.78
2022-08-22T19:02:55.929Z,22.70
2022-08-22T19:08:46.896Z,22.67
2022-08-22T19:14:22.663Z,22.62
2022-08-22T19:20:09.599Z,22.57
2022-08-22T19:25:26.324Z,22.48
2022-08-22T19:30:52.449Z,22.38
2022-08-22T19:36:12.874Z,22.33
2022-08-22T19:41:39.303Z,22.23
2022-08-22T19:46:42.278Z,22.10
2022-08-22T19:51:46.001Z,22.05
2022-08-22T19:57:18.928Z,22.01
2022-08-22T20:03:01.997Z,21.95
2022-08-22T20:08:18.316Z,21.90
2022-08-22T20:13:25.656Z,21.91
2022-08-22T20:19:09.329Z,21.87
2022-08-22T20:24:39.585Z,21.78
2022-08-22T20:29:49.557Z,21.71
2022-08-22T20:35:00.431Z,21.64
2022-08-22T20:40:32.264Z,21.52
2022-08-22T20:46:00.891Z,21.43
2022-08-22T20:51:07.755Z,21.37
2022-08-22T20:56:11.950Z,21.29
2022-08-22T21:01:14.849Z,21.30
2022-08-22T21:06:24.026Z,21.27
2022-08-22T21:11:42.066Z,21.18
2022-08-22T21:16:44.735Z,21.11
2022-08-22T21:21:47.899Z,20.98
2022-08-22T21:26:59.325Z,20.93
2022-08-22T21:32:14.341Z,20.80
2022-08-22T21:37:26.088Z,20.76
2022-08-22T21:42:44.621Z,20.78
2022-08-22T21:47:47.412Z,20.73
2022-08-22T21:52:56.479Z,20.68
2022-08-22T21:58:36.046Z,20.62
2022-08-22T22:03:37.982Z,20.55
2022-08-22T22:08:40.844Z,20.46
2022-08-22T22:13:43.787Z,20.38
2022-08-22T22:18:46.552Z,20.38
2022-08-22T22:23:50.715Z,20.36
2022-08-22T22:28:53.494Z,20.34
2022-08-22T22:33:56.347Z,20.33
2022-08-22T22:38:59.196Z,20.29
2022-08-22T22:44:02.165Z,20.28
2022-08-22T22:49:05.902Z,20.20
2022-08-22T22:54:08.707Z,20.18
2022-08-22T22:59:14.614Z,20.19
2022-08-22T23:04:17.846Z,20.13
2022-08-22T23:09:20.720Z,20.07
2022-08-22T23:14:32.103Z,20.04
2022-08-22T23:19:35.070Z,20.01
2022-08-22T23:24:38.853Z,19.97
2022-08-22T23:29:41.710Z,19.87
2022-08-22T23:34:46.552Z,19.78
2022-08-22T23:39:49.640Z,19.72
2022-08-22T23:44:52.579Z,19.66
2022-08-22T23:49:55.391Z,19.56
2022-08-22T23:54:58.223Z,19.48
